createdAt,value
2024-04-18T00:00:37.832Z,88.44
2024-04-18T00:05:42.878Z,88.69
2024-04-18T00:10:53.380Z,88.54
2024-04-18T00:16:15.063Z,88.80
2024-04-18T00:21:20.116Z,89.14
2024-04-18T00:26:36.931Z,88.97
2024-04-18T00:31:41.940Z,89.18
2024-04-18T00:36:46.969Z,89.49
2024-04-18T00:42:04.400Z,89.46
2024-04-18T00:47:09.681Z,89.89
2024-04-18T00:52:20.341Z,90.09
2024-04-18T00:57:35.547Z,89.93
2024-04-18T01:02:44.638Z,89.99
2024-04-18T01:08:08.283Z,89.88
2024-04-18T01:13:41.824Z,90.00
2024-04-18T01:19:00.009Z,90.07
2024-04-18T01:24:05.050Z,90.37
2024-04-18T01:29:12.597Z,90.42
2024-04-18T01:34:37.645Z,90.16
2024-04-18T01:39:54.946Z,90.64
2024-04-18T01:45:02.570Z,90.37
2024-04-18T01:50:16.565Z,90.77
2024-04-18T01:55:21.560Z,90.61
2024-04-18T02:00:29.433Z,90.57
2024-04-18T02:05:34.497Z,90.69
2024-04-18T02:10:54.984Z,90.87
2024-04-18T02:16:20.760Z,90.86
2024-04-18T02:21:45.760Z,91.12
2024-04-18T02:27:09.951Z,90.93
2024-04-18T02:32:17.541Z,91.21
2024-04-18T02:37:22.572Z,90.96
2024-04-18T02:42:28.014Z,91.19
2024-04-18T02:47:38.832Z,91.12
2024-04-18T02:52:43.853Z,91.09
2024-04-18T02:57:54.826Z,91.17
2024-04-18T03:03:02.402Z,91.21
2024-04-18T03:08:08.165Z,91.29
2024-04-18T03:13:31.220Z,91.43
2024-04-18T03:18:38.815Z,91.44
2024-04-18T03:23:53.811Z,91.38
2024-04-18T03:29:17.620Z,91.06
2024-04-18T03:34:37.741Z,91.33
2024-04-18T03:39:42.762Z,91.25
2024-04-18T03:44:48.305Z,91.44
2024-04-18T03:49:56.022Z,91.25
2024-04-18T03:55:15.369Z,91.50
2024-04-18T04:00:27.904Z,91.52
2024-04-18T04:05:35.608Z,91.75
2024-04-18T04:10:40.640Z,91.78
2024-04-18T04:15:45.750Z,91.85
2024-04-18T04:21:13.380Z,91.77
2024-04-18T04:26:18.773Z,91.90
2024-04-18T04:31:23.741Z,91.84
2024-04-18T04:36:31.323Z,91.83
2024-04-18T04:41:36.299Z,91.93
2024-04-18T04:46:41.270Z,91.97
2024-04-18T04:51:57.733Z,91.88
2024-04-18T04:57:18.008Z,92.10
2024-04-18T05:02:23.022Z,92.11
2024-04-18T05:07:32.189Z,92.29
2024-04-18T05:13:02.130Z,92.55
2024-04-18T05:18:13.374Z,92.78
2024-04-18T05:23:20.972Z,92.76
2024-04-18T05:28:31.762Z,92.76
2024-04-18T05:33:37.844Z,93.47
2024-04-18T05:38:45.510Z,93.44
2024-04-18T05:43:50.435Z,93.42
2024-04-18T05:48:55.519Z,93.39
2024-04-18T05:54:03.143Z,93.97
2024-04-18T05:59:08.113Z,94.01
2024-04-18T06:04:13.156Z,94.35
2024-04-18T06:09:40.694Z,94.66
2024-04-18T06:14:45.943Z,95.16
2024-04-18T06:19:53.002Z,95.76
2024-04-18T06:25:12.437Z,96.23
2024-04-18T06:30:17.708Z,96.65
2024-04-18T06:35:22.781Z,96.93
2024-04-18T06:40:30.333Z,96.50
2024-04-18T06:45:35.588Z,96.14
2024-04-18T06:50:40.899Z,94.80
2024-04-18T06:55:48.735Z,93.30
2024-04-18T07:00:53.807Z,90.48
2024-04-18T07:05:59.889Z,89.17
2024-04-18T07:11:07.533Z,86.59
2024-04-18T07:16:12.524Z,85.76
2024-04-18T07:21:32.372Z,85.73
2024-04-18T07:26:58.678Z,85.20
2024-04-18T07:32:04.000Z,84.04
2024-04-18T07:37:08.971Z,82.80
2024-04-18T07:42:17.598Z,81.89
2024-04-18T07:47:25.049Z,79.69
2024-04-18T07:52:30.179Z,80.69
2024-04-18T07:57:38.424Z,79.65
2024-04-18T08:02:46.495Z,80.36
2024-04-18T08:07:54.592Z,78.70
2024-04-18T08:13:07.748Z,79.49
2024-04-18T08:18:17.554Z,78.42
2024-04-18T08:23:23.206Z,76.95
2024-04-18T08:28:30.786Z,76.63
2024-04-18T08:33:35.774Z,75.23
2024-04-18T08:38:40.764Z,73.88
2024-04-18T08:43:52.202Z,72.01
2024-04-18T08:48:59.014Z,72.56
2024-04-18T08:54:04.097Z,71.38
2024-04-18T08:59:13.887Z,71.44
2024-04-18T09:04:18.951Z,69.07
2024-04-18T09:09:27.286Z,70.64
2024-04-18T09:14:36.312Z,68.45
2024-04-18T09:19:41.308Z,70.07
2024-04-18T09:24:47.022Z,70.10
2024-04-18T09:29:54.622Z,68.08
2024-04-18T09:35:01.632Z,66.77
2024-04-18T09:40:08.984Z,65.81
2024-04-18T09:45:20.847Z,66.84
2024-04-18T09:50:26.523Z,67.58
2024-04-18T09:55:33.007Z,67.84
2024-04-18T10:00:41.951Z,68.08
2024-04-18T10:05:51.165Z,66.55
2024-04-18T10:10:57.019Z,62.08
2024-04-18T10:16:12.822Z,63.16
2024-04-18T10:21:25.414Z,63.45
2024-04-18T10:26:40.466Z,64.20
2024-04-18T10:31:48.089Z,63.88
2024-04-18T10:36:53.336Z,64.49
2024-04-18T10:42:02.258Z,63.11
2024-04-18T10:47:12.104Z,63.68
2024-04-18T10:52:19.135Z,60.83
2024-04-18T10:57:24.205Z,64.00
2024-04-18T11:02:33.843Z,61.92
2024-04-18T11:07:39.126Z,59.31
2024-04-18T11:12:44.345Z,58.50
2024-04-18T11:17:52.081Z,58.98
2024-04-18T11:23:05.520Z,57.93
2024-04-18T11:28:18.110Z,57.10
2024-04-18T11:33:25.919Z,57.19
2024-04-18T11:38:32.811Z,58.20
2024-04-18T11:43:39.133Z,58.09
2024-04-18T11:48:46.759Z,56.95
2024-04-18T11:53:53.863Z,57.46
2024-04-18T11:59:15.083Z,56.99
2024-04-18T12:04:22.947Z,58.05
2024-04-18T12:09:28.102Z,56.93
2024-04-18T12:14:36.798Z,57.58
2024-04-18T12:19:45.078Z,56.79
2024-04-18T12:25:10.590Z,57.08
2024-04-18T12:30:15.576Z,57.53
2024-04-18T12:35:23.187Z,59.03
2024-04-18T12:40:28.716Z,59.45
2024-04-18T12:45:48.615Z,57.69
2024-04-18T12:50:56.239Z,58.31
2024-04-18T12:56:19.343Z,56.40
2024-04-18T13:01:24.427Z,56.54
2024-04-18T13:06:32.423Z,57.52
2024-04-18T13:11:57.460Z,56.57
2024-04-18T13:17:02.535Z,57.68
2024-04-18T13:22:28.574Z,58.64
2024-04-18T13:27:33.660Z,58.36
2024-04-18T13:32:39.706Z,58.84
2024-04-18T13:37:47.357Z,58.18
2024-04-18T13:42:54.917Z,58.99
2024-04-18T13:48:10.090Z,59.78
2024-04-18T13:53:23.859Z,59.18
2024-04-18T13:58:28.828Z,58.93
2024-04-18T14:03:34.465Z,59.29
2024-04-18T14:08:45.630Z,57.62
2024-04-18T14:14:11.081Z,58.92
2024-04-18T14:19:36.114Z,57.59
2024-04-18T14:24:46.281Z,57.88
2024-04-18T14:30:11.052Z,58.59
2024-04-18T14:35:16.059Z,58.42
2024-04-18T14:40:50.148Z,58.86
2024-04-18T14:46:02.662Z,58.12
2024-04-18T14:51:23.016Z,58.62
2024-04-18T14:56:30.597Z,59.32
2024-04-18T15:01:38.169Z,60.63
2024-04-18T15:06:43.131Z,60.15
2024-04-18T15:11:51.123Z,60.55
2024-04-18T15:16:56.072Z,59.85
2024-04-18T15:22:01.171Z,61.26
2024-04-18T15:27:21.604Z,62.25
2024-04-18T15:32:27.029Z,62.08
2024-04-18T15:38:08.735Z,63.62
2024-04-18T15:43:16.351Z,62.85
2024-04-18T15:48:21.483Z,63.68
2024-04-18T15:53:32.282Z,65.23
2024-04-18T15:58:48.870Z,66.51
2024-04-18T16:03:53.891Z,66.43
2024-04-18T16:09:07.902Z,68.68
2024-04-18T16:14:21.866Z,72.70
2024-04-18T16:19:28.379Z,76.59
2024-04-18T16:24:43.805Z,78.82
2024-04-18T16:29:51.445Z,79.96
2024-04-18T16:35:16.464Z,81.07
2024-04-18T16:40:22.808Z,82.09
2024-04-18T16:45:40.330Z,84.38
2024-04-18T16:50:45.635Z,86.65
2024-04-18T16:55:50.666Z,87.94
2024-04-18T17:01:00.268Z,89.39
2024-04-18T17:06:06.728Z,92.00
2024-04-18T17:11:11.877Z,92.70
2024-04-18T17:16:38.077Z,92.74
2024-04-18T17:21:58.155Z,93.06
2024-04-18T17:27:17.145Z,92.98
2024-04-18T17:32:24.913Z,92.35
2024-04-18T17:37:29.923Z,91.24
2024-04-18T17:42:35.064Z,91.09
2024-04-18T17:47:46.622Z,90.78
2024-04-18T17:52:51.798Z,90.33
2024-04-18T17:57:56.734Z,90.82
2024-04-18T18:03:04.419Z,90.78
2024-04-18T18:08:16.663Z,90.48
2024-04-18T18:13:21.650Z,90.11
2024-04-18T18:18:29.448Z,90.11
2024-04-18T18:23:34.454Z,90.16
2024-04-18T18:28:39.482Z,89.96
2024-04-18T18:33:48.493Z,89.61
2024-04-18T18:38:53.476Z,89.84
2024-04-18T18:43:58.448Z,90.11
2024-04-18T18:49:06.440Z,89.91
2024-04-18T18:54:12.127Z,89.80
2024-04-18T18:59:17.171Z,89.95
2024-04-18T19:04:24.920Z,90.53
2024-04-18T19:09:32.477Z,90.99
2024-04-18T19:14:37.646Z,90.97
2024-04-18T19:19:47.950Z,91.34
2024-04-18T19:24:53.111Z,91.61
2024-04-18T19:29:58.886Z,92.50
2024-04-18T19:35:07.059Z,92.34
2024-04-18T19:40:12.948Z,92.32
2024-04-18T19:45:38.391Z,93.08
2024-04-18T19:50:46.014Z,92.57
2024-04-18T19:56:02.993Z,92.80
2024-04-18T20:01:08.016Z,92.59
2024-04-18T20:06:16.372Z,92.67
2024-04-18T20:11:30.572Z,92.41
2024-04-18T20:16:35.697Z,91.69
2024-04-18T20:21:52.634Z,91.37
2024-04-18T20:26:57.679Z,90.90
2024-04-18T20:32:22.786Z,90.68
2024-04-18T20:37:31.256Z,90.25
2024-04-18T20:42:36.311Z,89.71
2024-04-18T20:47:41.679Z,89.01
2024-04-18T20:52:49.349Z,89.06
2024-04-18T20:57:54.375Z,88.79
2024-04-18T21:03:00.502Z,88.29
2024-04-18T21:08:08.694Z,88.56
2024-04-18T21:13:14.148Z,88.30
2024-04-18T21:18:19.308Z,88.58
2024-04-18T21:23:27.198Z,88.21
2024-04-18T21:28:32.256Z,88.16
2024-04-18T21:33:37.418Z,88.09
2024-04-18T21:38:54.294Z,88.18
2024-04-18T21:44:06.139Z,87.97
2024-04-18T21:49:11.222Z,87.89
2024-04-18T21:54:18.940Z,88.08
2024-04-18T21:59:24.053Z,87.80
2024-04-18T22:04:29.178Z,88.10
2024-04-18T22:09:36.879Z,87.95
2024-04-18T22:14:41.929Z,87.93
2024-04-18T22:19:47.053Z,88.05
2024-04-18T22:24:54.737Z,88.40
2024-04-18T22:29:59.813Z,88.55
2024-04-18T22:35:04.844Z,88.75
2024-04-18T22:40:14.319Z,88.78
2024-04-18T22:45:21.466Z,88.73
2024-04-18T22:50:26.598Z,88.52
2024-04-18T22:55:34.219Z,88.84
2024-04-18T23:00:40.196Z,88.57
2024-04-18T23:05:45.623Z,88.78
2024-04-18T23:10:53.322Z,88.98
2024-04-18T23:15:58.386Z,88.92
2024-04-18T23:21:03.438Z,88.93
2024-04-18T23:26:14.531Z,88.93
2024-04-18T23:31:19.583Z,89.19
2024-04-18T23:36:24.654Z,89.29
2024-04-18T23:41:32.267Z,89.36
2024-04-18T23:46:37.556Z,89.66
2024-04-18T23:51:42.830Z,90.34
2024-04-18T23:56:50.511Z,90.33
